createdAt,value
2018-10-01T00:01:50.680Z,21.57
2018-10-01T00:04:25.189Z,21.67
2018-10-01T00:07:00.121Z,22.50
2018-10-01T00:09:35.364Z,22.67
2018-10-01T00:12:10.456Z,22.40
2018-10-01T00:14:44.977Z,23.40
2018-10-01T00:17:20.018Z,23.40
2018-10-01T00:20:00.532Z,22.67
2018-10-01T00:22:40.724Z,23.87
2018-10-01T00:25:16.009Z,23.57
2018-10-01T00:27:50.956Z,22.63
2018-10-01T00:30:25.689Z,22.47
2018-10-01T00:33:00.297Z,24.87
2018-10-01T00:35:35.061Z,22.90
2018-10-01T00:38:09.563Z,23.33
2018-10-01T00:40:44.016Z,23.87
2018-10-01T00:43:19.323Z,22.87
2018-10-01T00:45:54.056Z,23.43
2018-10-01T00:48:28.362Z,23.90
2018-10-01T00:51:03.183Z,25.67
2018-10-01T00:53:37.804Z,25.80
2018-10-01T00:56:12.716Z,24.50
2018-10-01T00:58:47.267Z,25.17
2018-10-01T01:01:21.837Z,23.93
2018-10-01T01:03:56.566Z,24.77
2018-10-01T01:06:31.084Z,26.87
2018-10-01T01:09:07.917Z,26.93
2018-10-01T01:11:42.673Z,26.20
2018-10-01T01:14:17.260Z,25.80
2018-10-01T01:16:51.959Z,25.73
2018-10-01T01:19:26.391Z,25.23
2018-10-01T01:22:01.349Z,25.30
2018-10-01T01:24:35.927Z,23.73
2018-10-01T01:27:10.309Z,25.13
2018-10-01T01:29:44.760Z,26.00
2018-10-01T01:32:24.976Z,26.47
2018-10-01T01:34:59.736Z,27.47
2018-10-01T01:37:34.239Z,30.17
2018-10-01T01:40:08.841Z,27.73
2018-10-01T01:42:43.312Z,29.80
2018-10-01T01:45:18.947Z,31.33
2018-10-01T01:47:53.701Z,29.03
2018-10-01T01:50:28.271Z,28.67
2018-10-01T01:53:06.704Z,28.57
2018-10-01T01:55:41.100Z,27.77
2018-10-01T01:58:16.027Z,27.77
2018-10-01T02:00:50.868Z,28.53
2018-10-01T02:03:25.234Z,27.20
2018-10-01T02:06:00.293Z,26.50
2018-10-01T02:08:35.479Z,27.90
2018-10-01T02:11:10.050Z,27.27
2018-10-01T02:13:44.536Z,28.17
2018-10-01T02:16:19.309Z,30.40
2018-10-01T02:18:54.012Z,27.93
2018-10-01T02:21:28.392Z,29.37
2018-10-01T02:24:03.200Z,28.93
2018-10-01T02:26:38.114Z,29.73
2018-10-01T02:29:12.928Z,29.97
2018-10-01T02:31:47.355Z,30.50
2018-10-01T02:34:21.868Z,32.87
2018-10-01T02:36:56.224Z,32.50
2018-10-01T02:39:30.632Z,35.23
2018-10-01T02:42:06.500Z,35.67
2018-10-01T02:44:40.785Z,33.73
2018-10-01T02:47:15.644Z,38.33
2018-10-01T02:49:50.441Z,32.80
2018-10-01T02:52:30.217Z,32.73
2018-10-01T02:55:05.072Z,34.73
2018-10-01T02:57:40.392Z,34.87
2018-10-01T03:00:15.212Z,32.53
2018-10-01T03:02:50.119Z,36.23
2018-10-01T03:05:24.408Z,36.23
2018-10-01T03:07:58.735Z,35.50
2018-10-01T03:10:33.497Z,36.67
2018-10-01T03:13:07.800Z,35.40
2018-10-01T03:15:42.952Z,35.97
2018-10-01T03:18:17.531Z,35.37
2018-10-01T03:20:52.775Z,35.70
2018-10-01T03:23:27.091Z,40.87
2018-10-01T03:26:01.588Z,43.73
2018-10-01T03:28:36.104Z,44.63
2018-10-01T03:31:10.420Z,43.37
2018-10-01T03:33:45.084Z,45.57
2018-10-01T03:36:19.540Z,43.87
2018-10-01T03:38:54.472Z,44.13
2018-10-01T03:41:29.087Z,43.43
2018-10-01T03:44:03.649Z,47.00
2018-10-01T03:46:39.027Z,49.57
2018-10-01T03:49:17.942Z,46.23
2018-10-01T03:51:52.584Z,47.23
2018-10-01T03:54:27.144Z,47.50
2018-10-01T03:57:01.831Z,46.00
2018-10-01T03:59:36.812Z,45.80
2018-10-01T04:02:11.243Z,44.97
2018-10-01T04:04:50.026Z,41.53
2018-10-01T04:07:26.993Z,43.17
2018-10-01T04:10:01.423Z,44.83
2018-10-01T04:12:43.951Z,49.27
2018-10-01T04:15:18.420Z,44.73
2018-10-01T04:17:53.258Z,40.43
2018-10-01T04:20:27.984Z,45.17
2018-10-01T04:23:02.499Z,48.93
2018-10-01T04:25:37.004Z,47.37
2018-10-01T04:28:17.454Z,41.20
2018-10-01T04:30:52.628Z,42.53
2018-10-01T04:33:27.458Z,44.73
2018-10-01T04:36:02.460Z,49.20
2018-10-01T04:38:36.996Z,51.13
2018-10-01T04:41:26.376Z,48.40
2018-10-01T04:44:04.059Z,42.60
2018-10-01T04:46:41.258Z,47.03
2018-10-01T04:49:17.315Z,46.63
2018-10-01T04:51:51.687Z,46.87
2018-10-01T04:54:32.074Z,38.43
2018-10-01T04:57:08.352Z,38.10
2018-10-01T04:59:43.163Z,44.57
2018-10-01T05:02:18.120Z,44.67
2018-10-01T05:05:05.577Z,39.00
2018-10-01T05:07:40.334Z,37.63
2018-10-01T05:10:22.445Z,37.90
2018-10-01T05:12:58.875Z,35.33
2018-10-01T05:15:33.647Z,36.40
2018-10-01T05:18:08.207Z,34.13
2018-10-01T05:20:43.095Z,36.17
2018-10-01T05:23:34.211Z,40.73
2018-10-01T05:26:09.531Z,36.77
2018-10-01T05:29:07.627Z,40.67
2018-10-01T05:31:42.188Z,46.33
2018-10-01T05:34:16.657Z,50.87
2018-10-01T05:36:54.338Z,42.67
2018-10-01T05:39:28.864Z,42.20
2018-10-01T05:42:03.376Z,40.83
2018-10-01T05:44:38.112Z,33.67
2018-10-01T05:47:12.552Z,32.50
2018-10-01T05:49:47.268Z,29.40
2018-10-01T05:52:21.626Z,30.80
2018-10-01T05:54:56.446Z,27.47
2018-10-01T05:57:31.158Z,25.97
2018-10-01T06:00:06.224Z,26.00
2018-10-01T06:02:40.855Z,28.63
2018-10-01T06:05:15.305Z,28.13
2018-10-01T06:07:49.923Z,28.90
2018-10-01T06:10:24.368Z,30.83
2018-10-01T06:12:59.633Z,27.50
2018-10-01T06:15:33.985Z,30.70
2018-10-01T06:18:08.704Z,28.00
2018-10-01T06:20:43.875Z,29.67
2018-10-01T06:23:18.316Z,27.77
2018-10-01T06:25:53.312Z,31.00
2018-10-01T06:28:28.160Z,26.47
2018-10-01T06:31:02.671Z,25.80
2018-10-01T06:33:37.448Z,28.70
2018-10-01T06:36:11.954Z,29.07
2018-10-01T06:38:46.692Z,30.93
2018-10-01T06:41:21.604Z,27.30
2018-10-01T06:43:56.104Z,28.43
2018-10-01T06:46:30.932Z,30.23
2018-10-01T06:49:05.772Z,30.07
2018-10-01T06:51:55.048Z,31.57
2018-10-01T06:54:29.531Z,30.70
2018-10-01T06:57:04.259Z,28.37
2018-10-01T06:59:39.497Z,31.53
2018-10-01T07:02:14.096Z,28.47
2018-10-01T07:04:48.526Z,28.23
2018-10-01T07:07:23.613Z,28.20
2018-10-01T07:09:58.287Z,29.03
2018-10-01T07:12:33.064Z,25.93
2018-10-01T07:15:07.596Z,25.70
2018-10-01T07:17:42.185Z,26.53
2018-10-01T07:20:16.768Z,24.73
2018-10-01T07:22:51.547Z,24.13
2018-10-01T07:25:26.368Z,22.80
2018-10-01T07:28:00.832Z,25.97
2018-10-01T07:30:35.886Z,24.37
2018-10-01T07:33:10.958Z,24.43
2018-10-01T07:35:45.711Z,24.53
2018-10-01T07:38:20.056Z,24.60
2018-10-01T07:40:54.687Z,23.77
2018-10-01T07:43:29.239Z,23.03
2018-10-01T07:46:04.361Z,21.30
2018-10-01T07:48:40.096Z,21.50
2018-10-01T07:51:14.615Z,19.77
2018-10-01T07:53:49.061Z,20.17
2018-10-01T07:56:23.387Z,19.73
2018-10-01T07:58:58.160Z,19.10
2018-10-01T08:01:32.917Z,14.57
2018-10-01T08:04:08.020Z,16.70
2018-10-01T08:06:42.428Z,15.40
2018-10-01T08:09:17.093Z,12.43
2018-10-01T08:11:51.751Z,15.00
2018-10-01T08:14:26.611Z,12.93
2018-10-01T08:17:01.536Z,13.93
2018-10-01T08:19:36.037Z,15.03
2018-10-01T08:22:10.804Z,16.43
2018-10-01T08:24:45.368Z,17.63
2018-10-01T08:27:19.956Z,14.13
2018-10-01T08:29:54.337Z,13.67
2018-10-01T08:32:29.003Z,13.50
2018-10-01T08:35:03.769Z,14.13
2018-10-01T08:37:38.823Z,12.73
2018-10-01T08:40:14.030Z,13.70
2018-10-01T08:42:49.208Z,14.87
2018-10-01T08:45:24.222Z,12.07
2018-10-01T08:47:59.052Z,14.03
2018-10-01T08:50:37.070Z,14.70
2018-10-01T08:53:16.852Z,15.67
2018-10-01T08:55:51.375Z,16.97
2018-10-01T08:58:26.076Z,15.27
2018-10-01T09:01:01.118Z,14.07
2018-10-01T09:03:36.184Z,16.23
2018-10-01T09:06:10.921Z,17.10
2018-10-01T09:08:45.272Z,18.13
2018-10-01T09:11:19.733Z,17.00
2018-10-01T09:13:54.992Z,20.17
2018-10-01T09:16:29.652Z,17.90
2018-10-01T09:19:04.520Z,18.73
2018-10-01T09:21:38.947Z,20.63
2018-10-01T09:24:13.995Z,17.83
2018-10-01T09:26:49.076Z,17.40
2018-10-01T09:29:23.627Z,20.07
2018-10-01T09:31:58.311Z,18.33
2018-10-01T09:34:33.399Z,19.93
2018-10-01T09:37:08.208Z,19.53
2018-10-01T09:39:43.827Z,17.60
2018-10-01T09:42:19.419Z,19.33
2018-10-01T09:44:54.220Z,20.77
2018-10-01T09:47:28.947Z,18.50
2018-10-01T09:50:04.162Z,22.27
2018-10-01T09:52:42.463Z,22.33
2018-10-01T09:55:18.577Z,19.07
2018-10-01T09:57:53.192Z,18.60
2018-10-01T10:00:36.097Z,22.20
2018-10-01T10:03:14.274Z,18.33
2018-10-01T10:05:49.624Z,16.93
2018-10-01T10:08:24.831Z,14.27
2018-10-01T10:11:01.057Z,15.80
2018-10-01T10:13:35.519Z,16.43
2018-10-01T10:16:10.291Z,14.50
2018-10-01T10:18:45.961Z,15.10
2018-10-01T10:21:20.512Z,17.67
2018-10-01T10:23:56.413Z,18.43
2018-10-01T10:26:31.025Z,16.27
2018-10-01T10:29:06.606Z,22.40
2018-10-01T10:31:41.375Z,17.90
2018-10-01T10:34:16.521Z,19.80
2018-10-01T10:36:51.467Z,17.97
2018-10-01T10:39:28.270Z,14.93
2018-10-01T10:42:05.184Z,18.30
2018-10-01T10:44:42.639Z,18.23
2018-10-01T10:47:21.270Z,15.67
2018-10-01T10:49:56.650Z,16.83
2018-10-01T10:52:41.019Z,18.40
2018-10-01T10:55:16.191Z,18.47
2018-10-01T10:57:50.851Z,20.23
2018-10-01T11:00:26.137Z,17.50
2018-10-01T11:03:00.616Z,20.03
2018-10-01T11:05:40.640Z,20.50
2018-10-01T11:08:15.361Z,19.70
2018-10-01T11:10:51.041Z,18.70
2018-10-01T11:13:32.956Z,19.77
2018-10-01T11:19:15.826Z,18.83
2018-10-01T11:21:50.484Z,17.47
2018-10-01T11:24:25.095Z,19.47
2018-10-01T11:26:59.618Z,16.63
2018-10-01T11:29:34.695Z,18.67
2018-10-01T11:32:11.047Z,18.33
2018-10-01T11:35:03.983Z,17.73
2018-10-01T11:37:40.816Z,17.47
2018-10-01T11:40:15.928Z,18.73
2018-10-01T11:42:50.857Z,15.50
2018-10-01T11:45:25.670Z,18.67
2018-10-01T11:48:00.184Z,16.30
2018-10-01T11:50:37.636Z,16.57
2018-10-01T11:53:12.568Z,16.87
2018-10-01T11:55:47.359Z,19.87
2018-10-01T11:58:22.101Z,21.50
2018-10-01T12:00:57.968Z,19.77
2018-10-01T12:03:32.506Z,18.57
2018-10-01T12:06:08.233Z,19.43
2018-10-01T12:08:42.719Z,18.00
2018-10-01T12:11:17.279Z,21.80
2018-10-01T12:13:52.013Z,17.57
2018-10-01T12:16:26.767Z,18.53
2018-10-01T12:19:01.652Z,18.03
2018-10-01T12:21:36.107Z,18.33
2018-10-01T12:24:10.793Z,17.40
2018-10-01T12:26:45.822Z,19.60
2018-10-01T12:29:20.785Z,18.53
2018-10-01T12:32:05.445Z,20.23
2018-10-01T12:34:40.044Z,23.03
2018-10-01T12:37:14.724Z,19.47
2018-10-01T12:39:49.387Z,21.17
2018-10-01T12:42:24.174Z,20.73
2018-10-01T12:45:05.394Z,20.87
2018-10-01T12:47:40.084Z,21.57
2018-10-01T12:50:15.408Z,19.37
2018-10-01T12:52:57.203Z,19.63
2018-10-01T12:55:31.527Z,20.80
2018-10-01T12:58:06.767Z,19.10
2018-10-01T13:00:41.816Z,24.37
2018-10-01T13:03:17.933Z,22.40
2018-10-01T13:05:52.727Z,21.37
2018-10-01T13:08:27.666Z,21.13
2018-10-01T13:11:02.328Z,25.47
2018-10-01T13:13:36.736Z,21.87
2018-10-01T13:16:11.628Z,21.43
2018-10-01T13:18:46.619Z,26.40
2018-10-01T13:21:21.436Z,24.70
2018-10-01T13:23:56.044Z,23.53
2018-10-01T13:26:31.961Z,23.87
2018-10-01T13:29:06.609Z,26.40
2018-10-01T13:31:41.339Z,26.60
2018-10-01T13:34:16.739Z,25.80
2018-10-01T13:36:51.648Z,26.47
2018-10-01T13:39:26.468Z,28.83
2018-10-01T13:42:02.369Z,28.67
2018-10-01T13:44:39.301Z,27.57
2018-10-01T13:47:17.026Z,29.90
2018-10-01T13:49:55.842Z,30.60
2018-10-01T13:52:30.687Z,27.10
2018-10-01T13:55:05.070Z,26.27
2018-10-01T13:57:47.650Z,27.73
2018-10-01T14:00:22.859Z,25.53
2018-10-01T14:02:57.369Z,26.87
2018-10-01T14:05:32.475Z,25.77
2018-10-01T14:08:07.003Z,26.10
2018-10-01T14:10:42.039Z,25.73
2018-10-01T14:13:16.978Z,23.90
2018-10-01T14:15:52.372Z,25.37
2018-10-01T14:18:31.145Z,26.90
2018-10-01T14:21:06.042Z,26.17
2018-10-01T14:23:40.798Z,27.57
2018-10-01T14:26:15.559Z,26.83
2018-10-01T14:28:50.184Z,28.93
2018-10-01T14:31:28.555Z,26.90
2018-10-01T14:34:09.977Z,27.93
2018-10-01T14:36:44.897Z,28.23
2018-10-01T14:39:22.821Z,26.43
2018-10-01T14:41:58.231Z,27.27
2018-10-01T14:44:33.280Z,27.07
2018-10-01T14:47:08.382Z,28.67
2018-10-01T14:49:42.820Z,29.47
2018-10-01T14:52:17.308Z,27.20
2018-10-01T14:55:00.060Z,28.27
2018-10-01T14:57:34.868Z,30.47
2018-10-01T15:00:09.578Z,27.53
2018-10-01T15:02:44.187Z,28.10
2018-10-01T15:05:17.798Z,29.53
2018-10-01T15:07:52.282Z,29.63
2018-10-01T15:10:26.989Z,30.30
2018-10-01T15:13:01.537Z,26.60
2018-10-01T15:15:41.872Z,26.77
2018-10-01T15:18:16.552Z,25.50
2018-10-01T15:20:51.529Z,25.67
2018-10-01T15:23:26.293Z,29.17
2018-10-01T15:26:00.788Z,25.70
2018-10-01T15:28:35.481Z,33.90
2018-10-01T15:31:10.693Z,27.90
2018-10-01T15:33:45.144Z,28.53
2018-10-01T15:36:19.631Z,27.67
2018-10-01T15:38:54.717Z,28.50
2018-10-01T15:41:29.564Z,25.50
2018-10-01T15:44:04.441Z,28.47
2018-10-01T15:46:47.071Z,28.50
2018-10-01T15:49:23.936Z,27.33
2018-10-01T15:51:58.555Z,28.40
2018-10-01T15:54:33.476Z,27.70
2018-10-01T15:57:08.205Z,25.87
2018-10-01T15:59:43.307Z,26.50
2018-10-01T16:02:18.034Z,24.20
2018-10-01T16:04:52.766Z,27.47
2018-10-01T16:07:28.509Z,26.07
2018-10-01T16:10:12.777Z,24.70
2018-10-01T16:12:54.552Z,25.67
2018-10-01T16:15:29.372Z,25.33
2018-10-01T16:18:04.185Z,25.97
2018-10-01T16:20:38.999Z,21.53
2018-10-01T16:23:14.981Z,21.20
2018-10-01T16:25:52.460Z,21.70
2018-10-01T16:28:27.479Z,20.80
2018-10-01T16:31:01.988Z,18.33
2018-10-01T16:33:38.077Z,17.77
2018-10-01T16:36:13.839Z,18.97
2018-10-01T16:38:48.756Z,18.47
2018-10-01T16:41:28.732Z,19.50
2018-10-01T16:44:03.491Z,21.37
2018-10-01T16:46:37.804Z,21.27
2018-10-01T16:49:12.548Z,22.90
2018-10-01T16:51:47.724Z,23.13
2018-10-01T16:54:22.956Z,24.80
2018-10-01T16:56:57.770Z,20.83
2018-10-01T16:59:33.516Z,21.53
2018-10-01T17:02:08.802Z,20.80
2018-10-01T17:04:43.196Z,21.37
2018-10-01T17:07:17.645Z,20.13
2018-10-01T17:09:52.140Z,19.73
2018-10-01T17:12:26.426Z,20.77
2018-10-01T17:15:01.220Z,18.73
2018-10-01T17:17:36.399Z,20.30
2018-10-01T17:20:10.866Z,20.60
2018-10-01T17:25:47.837Z,17.43
2018-10-01T17:28:22.584Z,19.00
2018-10-01T17:30:56.913Z,17.23
2018-10-01T17:33:31.576Z,21.43
2018-10-01T17:36:06.008Z,15.97
2018-10-01T17:38:40.543Z,16.67
2018-10-01T17:41:14.979Z,17.20
2018-10-01T17:43:49.497Z,17.63
2018-10-01T17:46:24.284Z,17.13
2018-10-01T17:48:58.678Z,20.50
2018-10-01T17:51:32.996Z,21.10
2018-10-01T17:54:07.503Z,17.43
2018-10-01T17:56:42.651Z,19.77
2018-10-01T17:59:17.048Z,17.20
2018-10-01T18:01:51.831Z,18.50
2018-10-01T18:04:26.456Z,18.63
2018-10-01T18:07:01.712Z,17.53
2018-10-01T18:09:36.649Z,15.93
2018-10-01T18:12:11.107Z,14.30
2018-10-01T18:14:45.812Z,13.13
2018-10-01T18:17:20.570Z,13.10
2018-10-01T18:19:55.232Z,17.17
2018-10-01T18:22:30.157Z,11.77
2018-10-01T18:25:05.279Z,14.00
2018-10-01T18:27:47.313Z,14.40
2018-10-01T18:30:22.303Z,16.27
2018-10-01T18:35:46.368Z,13.63
2018-10-01T18:38:21.563Z,15.20
2018-10-01T18:40:56.570Z,14.50
2018-10-01T18:43:34.327Z,16.70
2018-10-01T18:46:12.548Z,15.83
2018-10-01T18:48:47.008Z,15.23
2018-10-01T18:51:21.961Z,16.77
2018-10-01T18:53:56.831Z,16.17
2018-10-01T18:56:33.891Z,16.90
2018-10-01T18:59:09.417Z,17.77
2018-10-01T19:01:49.041Z,17.57
2018-10-01T19:04:23.856Z,21.30
2018-10-01T19:06:59.453Z,20.43
2018-10-01T19:09:34.115Z,23.50
2018-10-01T19:12:33.568Z,21.20
2018-10-01T19:15:09.828Z,21.50
2018-10-01T19:17:45.070Z,21.77
2018-10-01T19:20:20.263Z,20.43
2018-10-01T19:22:56.949Z,18.23
2018-10-01T19:25:31.603Z,16.40
2018-10-01T19:28:06.212Z,15.83
2018-10-01T19:31:00.956Z,15.77
2018-10-01T19:33:35.585Z,15.87
2018-10-01T19:36:10.742Z,16.73
2018-10-01T19:38:45.972Z,15.03
2018-10-01T19:41:21.183Z,16.03
2018-10-01T19:43:55.508Z,16.20
2018-10-01T19:46:33.360Z,14.63
2018-10-01T19:49:08.127Z,13.77
2018-10-01T19:51:42.619Z,15.10
2018-10-01T19:57:03.760Z,15.77
2018-10-01T19:59:40.516Z,16.13
2018-10-01T20:02:15.162Z,15.63
2018-10-01T20:04:49.546Z,15.47
2018-10-01T20:10:48.991Z,15.33
2018-10-01T20:13:23.744Z,15.40
2018-10-01T20:16:02.808Z,15.03
2018-10-01T20:18:37.767Z,15.83
2018-10-01T20:21:12.619Z,16.00
2018-10-01T20:23:47.903Z,15.73
2018-10-01T20:26:22.555Z,13.83
2018-10-01T20:29:01.598Z,13.40
2018-10-01T20:31:36.217Z,16.80
2018-10-01T20:34:10.956Z,14.33
2018-10-01T20:36:45.558Z,14.63
2018-10-01T20:39:20.643Z,13.53
2018-10-01T20:41:55.190Z,13.80
2018-10-01T20:44:29.827Z,17.63
2018-10-01T20:47:04.166Z,14.57
2018-10-01T20:49:38.973Z,14.93
2018-10-01T20:52:13.815Z,18.50
2018-10-01T20:54:49.012Z,16.90
2018-10-01T20:57:23.634Z,21.23
2018-10-01T20:59:58.196Z,19.47
2018-10-01T21:02:33.062Z,21.07
2018-10-01T21:05:11.463Z,21.37
2018-10-01T21:07:49.247Z,21.03
2018-10-01T21:10:26.941Z,21.33
2018-10-01T21:13:06.824Z,22.43
2018-10-01T21:15:41.736Z,21.17
2018-10-01T21:18:16.135Z,19.97
2018-10-01T21:20:50.476Z,21.00
2018-10-01T21:23:25.116Z,17.73
2018-10-01T21:26:00.107Z,18.90
2018-10-01T21:28:34.750Z,18.77
2018-10-01T21:31:09.371Z,18.30
2018-10-01T21:33:43.879Z,17.17
2018-10-01T21:36:18.402Z,14.77
2018-10-01T21:38:52.972Z,16.10
2018-10-01T21:41:27.835Z,14.50
2018-10-01T21:44:02.275Z,13.20
2018-10-01T21:46:36.596Z,10.37
2018-10-01T21:49:10.992Z,9.57
2018-10-01T21:51:49.484Z,8.93
2018-10-01T21:54:23.876Z,9.10
2018-10-01T21:56:58.367Z,11.50
2018-10-01T21:59:32.993Z,9.70
2018-10-01T22:02:07.793Z,10.80
2018-10-01T22:04:42.599Z,12.60
2018-10-01T22:07:18.143Z,13.50
2018-10-01T22:09:52.808Z,12.87
2018-10-01T22:12:27.111Z,15.27
2018-10-01T22:15:02.925Z,13.03
2018-10-01T22:17:43.927Z,13.20
2018-10-01T22:20:22.841Z,13.57
2018-10-01T22:22:57.659Z,13.90
2018-10-01T22:25:32.195Z,14.90
2018-10-01T22:28:09.053Z,15.17
2018-10-01T22:30:43.895Z,14.70
2018-10-01T22:33:18.741Z,16.20
2018-10-01T22:35:53.181Z,13.80
2018-10-01T22:38:27.796Z,14.13
2018-10-01T22:41:02.225Z,14.53
2018-10-01T22:43:37.119Z,15.57
2018-10-01T22:46:12.030Z,14.97
2018-10-01T22:48:46.821Z,14.97
2018-10-01T22:51:21.889Z,16.23
2018-10-01T22:53:56.500Z,15.90
2018-10-01T22:56:31.474Z,14.93
2018-10-01T22:59:06.436Z,18.33
2018-10-01T23:01:41.612Z,17.70
2018-10-01T23:04:16.016Z,15.17
2018-10-01T23:06:50.964Z,15.40
2018-10-01T23:09:26.243Z,16.30
2018-10-01T23:12:00.974Z,14.40
2018-10-01T23:14:35.456Z,14.53
2018-10-01T23:17:11.236Z,13.63
2018-10-01T23:19:46.404Z,13.10
2018-10-01T23:22:21.406Z,13.37
2018-10-01T23:24:56.359Z,12.47
2018-10-01T23:27:31.009Z,12.83
2018-10-01T23:30:05.760Z,12.97
2018-10-01T23:32:40.192Z,13.20
2018-10-01T23:35:15.283Z,13.03
2018-10-01T23:37:49.751Z,13.70
2018-10-01T23:40:24.259Z,12.67
2018-10-01T23:42:59.115Z,13.37
2018-10-01T23:45:33.784Z,12.97
2018-10-01T23:48:08.878Z,12.37
2018-10-01T23:50:43.775Z,13.10
2018-10-01T23:53:18.303Z,13.07
2018-10-01T23:55:53.343Z,13.10
2018-10-01T23:58:28.219Z,13.13
